Terminal Aerodrome Forecast
Issued by NWS Sterling, VA

Home | Current Version | Previous Version | Text Only | Print | Product List | Glossary On
Versions: 1 2 3 4 5 6 7 8 9 10 11 12 13 14 15 16 17 18 19 20 21
431
FTUS41 KLWX 230540
TAFDCA
TAF
KDCA 230540Z 2306/2412 16004KT P6SM BKN050 OVC150
     FM231000 VRB03KT P6SM BKN100
     FM231500 12012G18KT P6SM BKN150
     FM240500 12005KT P6SM BKN100
     FM241000 11005KT 6SM -RA OVC030=

USA.gov is the U.S. government's official web portal to all federal, state and local government web resources and services.